Time;durP1;ratioP1;P1;durP2;ratioP2;P2;SDS_P1;SDS_P2;PMS_P1;PMS_P2;Temp;Humidity;BMP_temperature;BMP_pressure;BME280_temperature;BME280_humidity;BME280_pressure;Samples;Min_cycle;Max_cycle;Signal;HPM_P1;HPM_P2
2022/01/05 00:00:16;;;;;;;13.47;8.10;;;5.80;99.90;;;;;;4992006;28;20326;-70
2022/01/05 00:02:42;;;;;;;14.37;9.03;;;5.80;99.90;;;;;;4992517;28;20207;-70
2022/01/05 00:05:10;;;;;;;13.47;8.40;;;5.80;99.90;;;;;;4992267;28;20214;-67
2022/01/05 00:07:37;;;;;;;16.43;8.67;;;5.80;99.90;;;;;;4992829;28;20211;-69
2022/01/05 00:10:04;;;;;;;13.93;8.50;;;5.80;99.90;;;;;;4992446;28;20589;-70
2022/01/05 00:12:33;;;;;;;18.47;9.20;;;5.80;99.90;;;;;;4988061;28;20220;-68
2022/01/05 00:15:00;;;;;;;17.20;9.10;;;5.80;99.90;;;;;;4980100;28;20195;-68
2022/01/05 00:17:27;;;;;;;14.73;8.80;;;5.80;99.90;;;;;;4991357;28;20201;-69
2022/01/05 00:19:54;;;;;;;15.40;8.63;;;5.80;99.90;;;;;;4991150;28;20250;-69
2022/01/05 00:22:21;;;;;;;15.00;8.47;;;5.80;99.90;;;;;;4992573;28;20557;-72
2022/01/05 00:24:47;;;;;;;16.40;8.80;;;5.80;99.90;;;;;;4992484;28;20222;-70
2022/01/05 00:27:14;;;;;;;12.97;8.57;;;5.80;99.90;;;;;;4992228;28;20212;-69
2022/01/05 00:29:42;;;;;;;16.13;9.23;;;5.80;99.90;;;;;;4992487;28;20207;-69
2022/01/05 00:32:10;;;;;;;14.40;8.43;;;5.80;99.90;;;;;;4991804;28;20223;-70
2022/01/05 00:34:37;;;;;;;13.87;8.70;;;5.80;99.90;;;;;;4992388;28;20564;-69
2022/01/05 00:37:04;;;;;;;17.03;9.50;;;5.80;99.90;;;;;;4991719;28;20207;-71
2022/01/05 00:39:31;;;;;;;15.90;9.20;;;5.80;99.90;;;;;;4992358;28;20207;-70
2022/01/05 00:41:58;;;;;;;14.27;9.13;;;5.80;99.90;;;;;;4992053;28;20211;-69
2022/01/05 00:44:25;;;;;;;17.30;9.80;;;5.80;99.90;;;;;;4992377;28;20211;-68
2022/01/05 00:46:53;;;;;;;18.77;9.80;;;5.80;99.90;;;;;;4991448;28;20203;-71
2022/01/05 00:49:20;;;;;;;15.60;9.10;;;5.80;99.90;;;;;;4985326;28;20204;-70
2022/01/05 00:51:47;;;;;;;16.57;9.50;;;5.90;99.90;;;;;;4972492;28;20238;-70
2022/01/05 00:54:14;;;;;;;16.60;9.17;;;5.90;99.90;;;;;;4972824;28;20657;-71
2022/01/05 00:56:41;;;;;;;17.03;9.17;;;5.90;99.90;;;;;;4972657;28;20208;-70
2022/01/05 00:59:07;;;;;;;15.53;8.83;;;5.90;99.90;;;;;;4972381;28;20327;-68
2022/01/05 01:01:34;;;;;;;14.40;8.47;;;6.00;99.90;;;;;;4981037;28;20207;-69
2022/01/05 01:04:02;;;;;;;16.23;8.57;;;6.00;99.90;;;;;;4994155;28;20210;-69
2022/01/05 01:06:30;;;;;;;16.30;9.10;;;6.00;99.90;;;;;;4995662;28;20207;-68
2022/01/05 01:08:57;;;;;;;13.97;9.00;;;6.00;99.90;;;;;;4995218;28;20218;-69
2022/01/05 01:11:24;;;;;;;16.13;8.70;;;6.10;99.90;;;;;;4995740;28;20227;-70
2022/01/05 01:13:51;;;;;;;12.83;8.17;;;6.10;99.90;;;;;;4995425;28;20210;-68
2022/01/05 01:16:19;;;;;;;14.03;8.20;;;6.10;99.90;;;;;;4995519;28;20207;-70
2022/01/05 01:18:46;;;;;;;12.33;8.40;;;6.20;99.90;;;;;;4994652;28;20211;-70
2022/01/05 01:21:14;;;;;;;13.73;8.57;;;6.20;99.90;;;;;;4995569;28;20207;-69
2022/01/05 01:23:48;;;;;;;14.03;7.97;;;6.30;99.90;;;;;;4995518;28;20279;-70
2022/01/05 01:26:15;;;;;;;13.13;7.97;;;6.30;99.90;;;;;;4995622;28;20285;-69
2022/01/05 01:28:42;;;;;;;12.80;8.07;;;6.30;99.90;;;;;;4995305;28;20203;-69
2022/01/05 01:31:09;;;;;;;13.90;8.17;;;6.30;99.90;;;;;;4995488;28;20678;-69
2022/01/05 01:33:36;;;;;;;12.83;7.87;;;6.30;99.90;;;;;;4995210;28;20588;-69
2022/01/05 01:36:02;;;;;;;13.53;7.93;;;6.40;99.90;;;;;;4995181;28;20652;-67
2022/01/05 01:38:31;;;;;;;12.63;7.67;;;6.40;99.90;;;;;;4995348;28;20203;-68
2022/01/05 01:40:57;;;;;;;14.17;7.17;;;6.30;99.90;;;;;;4994035;28;20207;-67
2022/01/05 01:43:24;;;;;;;11.27;7.67;;;6.30;99.90;;;;;;4995087;28;20656;-69
2022/01/05 01:45:51;;;;;;;15.77;7.67;;;6.30;99.90;;;;;;4989756;28;20234;-68
2022/01/05 01:48:18;;;;;;;12.37;7.90;;;6.30;99.90;;;;;;4975742;28;20558;-70
2022/01/05 01:50:45;;;;;;;12.07;7.47;;;6.30;99.90;;;;;;4975607;28;20697;-69
2022/01/05 01:53:12;;;;;;;13.17;7.77;;;6.40;99.90;;;;;;4975712;28;20307;-70
2022/01/05 01:55:41;;;;;;;14.43;8.10;;;6.40;99.90;;;;;;4975075;28;20216;-69
2022/01/05 01:58:08;;;;;;;16.47;8.57;;;6.50;99.90;;;;;;4981001;28;20210;-68
2022/01/05 02:00:35;;;;;;;14.67;7.97;;;6.50;99.90;;;;;;4994609;28;20243;-70
2022/01/05 02:03:03;;;;;;;12.90;8.07;;;6.50;99.90;;;;;;4994932;28;20660;-71
2022/01/05 02:05:29;;;;;;;13.27;7.97;;;6.40;99.90;;;;;;4994854;28;20219;-69
2022/01/05 02:07:56;;;;;;;13.20;7.40;;;6.40;99.90;;;;;;4994768;28;20672;-71
2022/01/05 02:10:23;;;;;;;12.17;7.20;;;6.50;99.90;;;;;;4994781;28;20203;-70
2022/01/05 02:12:51;;;;;;;11.87;7.10;;;6.50;99.90;;;;;;4994324;28;20228;-70
2022/01/05 02:15:18;;;;;;;12.37;7.90;;;6.50;99.90;;;;;;4993806;28;20203;-70
2022/01/05 02:17:54;;;;;;;13.10;7.40;;;6.50;99.90;;;;;;4994476;28;20208;-69
2022/01/05 02:20:23;;;;;;;12.20;7.23;;;6.50;99.90;;;;;;4994668;28;20191;-69
2022/01/05 02:22:52;;;;;;;12.30;7.57;;;6.60;99.90;;;;;;4993959;28;20206;-68
2022/01/05 02:25:20;;;;;;;14.77;6.90;;;6.60;99.90;;;;;;4994376;28;20557;-69
2022/01/05 02:27:48;;;;;;;13.23;7.37;;;6.60;99.90;;;;;;4994246;28;20207;-69
2022/01/05 02:30:19;;;;;;;12.97;7.97;;;6.60;99.90;;;;;;4994617;28;20208;-68
2022/01/05 02:32:46;;;;;;;13.07;7.50;;;6.60;99.90;;;;;;4993890;28;20219;-70
2022/01/05 02:35:13;;;;;;;11.33;6.90;;;6.70;99.90;;;;;;4994262;28;20203;-69
2022/01/05 02:37:41;;;;;;;11.67;7.60;;;6.70;99.90;;;;;;4994086;28;20569;-70
2022/01/05 02:40:12;;;;;;;12.67;6.97;;;6.70;99.90;;;;;;4993894;28;20650;-69
2022/01/05 02:42:39;;;;;;;13.40;7.47;;;6.70;99.90;;;;;;4994115;28;20192;-68
2022/01/05 02:45:07;;;;;;;11.10;6.93;;;6.70;99.90;;;;;;4994187;28;20223;-69
2022/01/05 02:47:34;;;;;;;12.33;6.87;;;6.70;99.90;;;;;;4993827;28;20203;-70
2022/01/05 02:50:02;;;;;;;12.03;6.60;;;6.80;99.90;;;;;;4994120;28;20538;-70
2022/01/05 02:52:28;;;;;;;11.50;6.93;;;6.80;99.90;;;;;;4993830;28;20229;-68
2022/01/05 02:54:55;;;;;;;11.10;6.50;;;6.80;99.90;;;;;;4993996;28;20213;-68
2022/01/05 02:57:23;;;;;;;12.47;7.43;;;6.80;99.90;;;;;;4993861;28;20203;-70
2022/01/05 02:59:50;;;;;;;12.20;6.53;;;6.80;99.90;;;;;;4993344;28;20243;-68
2022/01/05 03:02:17;;;;;;;11.87;6.60;;;6.80;99.90;;;;;;4993601;28;20207;-69
2022/01/05 03:04:44;;;;;;;12.10;6.63;;;6.80;99.90;;;;;;4993565;28;20569;-71
2022/01/05 03:07:10;;;;;;;12.40;6.80;;;6.80;99.90;;;;;;4993349;28;20208;-69
2022/01/05 03:09:37;;;;;;;11.57;6.83;;;6.80;99.90;;;;;;4993130;28;20211;-70
2022/01/05 03:12:04;;;;;;;10.50;6.50;;;6.80;99.90;;;;;;4993556;28;20214;-68
2022/01/05 03:14:33;;;;;;;9.70;6.50;;;6.80;99.90;;;;;;4993361;28;20572;-68
2022/01/05 03:16:59;;;;;;;13.07;6.40;;;6.80;99.90;;;;;;4993610;28;20203;-68
2022/01/05 03:19:26;;;;;;;12.87;6.47;;;6.80;99.90;;;;;;4993259;28;20218;-69
2022/01/05 03:21:54;;;;;;;9.90;6.50;;;6.90;99.90;;;;;;4993109;28;20211;-68
2022/01/05 03:24:21;;;;;;;11.90;6.70;;;6.90;99.90;;;;;;4993250;28;20230;-69
2022/01/05 03:26:48;;;;;;;9.40;6.33;;;6.90;99.90;;;;;;4992874;28;20215;-69
2022/01/05 03:29:14;;;;;;;10.50;6.53;;;7.00;99.90;;;;;;4993404;28;20214;-69
2022/01/05 03:31:42;;;;;;;10.07;6.60;;;7.00;99.90;;;;;;4993026;28;20207;-67
2022/01/05 03:34:16;;;;;;;10.80;6.07;;;7.00;99.90;;;;;;4992890;28;20227;-67
2022/01/05 03:36:43;;;;;;;13.37;6.57;;;7.00;99.90;;;;;;4992955;28;20254;-68
2022/01/05 03:39:10;;;;;;;12.30;6.83;;;7.00;99.90;;;;;;4993186;28;20694;-69
2022/01/05 03:41:37;;;;;;;9.57;5.97;;;7.00;99.90;;;;;;4992789;28;20590;-70
2022/01/05 03:44:04;;;;;;;12.67;6.67;;;7.00;99.90;;;;;;4993024;28;20668;-68
2022/01/05 03:46:31;;;;;;;11.07;6.67;;;7.00;99.90;;;;;;4992703;28;20207;-70
2022/01/05 03:49:01;;;;;;;9.73;6.33;;;7.00;99.90;;;;;;4992984;28;20510;-70
2022/01/05 03:51:28;;;;;;;9.53;6.17;;;7.10;99.90;;;;;;4991598;28;20252;-69
2022/01/05 03:53:54;;;;;;;12.00;6.80;;;7.00;99.90;;;;;;4992522;28;20231;-68
2022/01/05 03:56:21;;;;;;;9.23;6.03;;;7.10;99.90;;;;;;4992705;28;20207;-68
2022/01/05 03:58:49;;;;;;;15.23;8.33;;;7.10;99.90;;;;;;4991914;28;20239;-69
2022/01/05 04:01:15;;;;;;;10.73;6.97;;;7.10;99.90;;;;;;4992761;28;20195;-68
2022/01/05 04:03:42;;;;;;;10.50;6.20;;;7.10;99.90;;;;;;4992087;28;20199;-69
2022/01/05 04:06:11;;;;;;;11.00;6.57;;;7.10;99.90;;;;;;4992408;28;20306;-70
2022/01/05 04:08:38;;;;;;;13.30;7.37;;;7.10;99.90;;;;;;4992087;28;20214;-69
2022/01/05 04:11:04;;;;;;;14.63;8.13;;;7.10;99.90;;;;;;4992611;28;20219;-69
2022/01/05 04:13:31;;;;;;;16.90;9.30;;;7.10;99.90;;;;;;4991855;28;20230;-70
2022/01/05 04:15:58;;;;;;;17.77;9.57;;;7.10;99.90;;;;;;4992192;28;20203;-69
2022/01/05 04:18:25;;;;;;;20.10;11.33;;;7.20;99.90;;;;;;4991892;28;20203;-69
2022/01/05 04:20:51;;;;;;;18.70;10.70;;;7.20;99.90;;;;;;4992107;28;20207;-69
2022/01/05 04:23:20;;;;;;;18.63;10.90;;;7.20;99.90;;;;;;4992282;28;20225;-70
2022/01/05 04:25:46;;;;;;;16.30;9.87;;;7.20;99.90;;;;;;4992496;28;20217;-69
2022/01/05 04:28:13;;;;;;;15.17;9.50;;;7.20;99.90;;;;;;4992493;28;20210;-67
2022/01/05 04:30:40;;;;;;;15.10;9.10;;;7.20;99.90;;;;;;4992076;28;20207;-68
2022/01/05 04:33:07;;;;;;;13.03;7.70;;;7.30;99.90;;;;;;4991986;28;20224;-67
2022/01/05 04:35:33;;;;;;;10.20;6.57;;;7.30;99.90;;;;;;4991879;28;20207;-68
2022/01/05 04:38:00;;;;;;;9.93;6.40;;;7.30;99.90;;;;;;4991502;28;20210;-68
2022/01/05 04:40:31;;;;;;;12.30;6.80;;;7.30;99.90;;;;;;4992121;28;20559;-68
2022/01/05 04:42:58;;;;;;;10.87;7.03;;;7.30;99.90;;;;;;4992334;28;20196;-67
2022/01/05 04:45:24;;;;;;;10.87;6.30;;;7.30;99.90;;;;;;4991991;28;20586;-69
2022/01/05 04:47:51;;;;;;;11.90;6.43;;;7.30;99.90;;;;;;4992216;28;20207;-69
2022/01/05 04:50:18;;;;;;;9.90;6.63;;;7.30;99.90;;;;;;4991638;28;20215;-69
2022/01/05 04:52:45;;;;;;;12.43;7.43;;;7.30;99.90;;;;;;4992085;28;20660;-69
2022/01/05 04:55:12;;;;;;;11.90;6.90;;;7.30;99.90;;;;;;4991542;28;20330;-69
2022/01/05 04:57:40;;;;;;;11.00;6.90;;;7.30;99.90;;;;;;4991914;28;20238;-68
2022/01/05 05:00:08;;;;;;;10.73;7.00;;;7.30;99.90;;;;;;4983853;28;20613;-67
2022/01/05 05:02:35;;;;;;;10.80;6.30;;;7.40;99.90;;;;;;4972899;28;20269;-67
2022/01/05 05:05:02;;;;;;;10.63;6.53;;;7.40;99.90;;;;;;4972833;28;20640;-66
2022/01/05 05:07:29;;;;;;;13.03;7.00;;;7.30;99.90;;;;;;5000402;28;20196;-68
2022/01/05 05:09:55;;;;;;;12.57;7.40;;;7.30;99.90;;;;;;4991731;28;20235;-67
2022/01/05 05:12:22;;;;;;;13.10;7.23;;;7.40;99.90;;;;;;4988219;28;20200;-67
2022/01/05 05:14:50;;;;;;;9.77;6.23;;;7.30;99.90;;;;;;4991571;28;20570;-67
2022/01/05 05:17:17;;;;;;;11.27;6.30;;;7.30;99.90;;;;;;4991693;28;20408;-66
2022/01/05 05:19:44;;;;;;;10.47;6.83;;;7.40;99.90;;;;;;4991697;28;20206;-69
2022/01/05 05:22:11;;;;;;;10.30;6.13;;;7.40;99.90;;;;;;4991585;28;20653;-67
2022/01/05 05:24:38;;;;;;;10.27;6.03;;;7.50;99.90;;;;;;4992012;28;20669;-69
2022/01/05 05:27:05;;;;;;;9.33;5.80;;;7.50;99.90;;;;;;4991638;28;20204;-68
2022/01/05 05:29:32;;;;;;;10.07;6.33;;;7.50;99.90;;;;;;4991167;28;20235;-68
2022/01/05 05:32:00;;;;;;;11.20;6.20;;;7.60;99.90;;;;;;4991471;28;20211;-68
2022/01/05 05:34:27;;;;;;;8.70;5.53;;;7.60;99.90;;;;;;4991131;28;20212;-68
2022/01/05 05:36:54;;;;;;;10.43;6.03;;;7.60;99.90;;;;;;4991973;28;20538;-71
2022/01/05 05:39:21;;;;;;;11.67;6.43;;;7.60;99.90;;;;;;4991649;28;20224;-67
2022/01/05 05:41:47;;;;;;;9.27;5.97;;;7.70;99.90;;;;;;4991804;28;20204;-67
2022/01/05 05:44:14;;;;;;;9.03;5.70;;;7.70;99.90;;;;;;4991533;28;20204;-71
2022/01/05 05:46:41;;;;;;;11.83;7.03;;;7.70;99.90;;;;;;4991459;28;20215;-66
2022/01/05 05:49:09;;;;;;;9.13;5.67;;;7.70;99.90;;;;;;4991630;28;20234;-66
2022/01/05 05:51:36;;;;;;;10.17;6.13;;;7.70;99.90;;;;;;4994672;28;20203;-67
2022/01/05 05:54:04;;;;;;;8.77;5.50;;;7.80;99.90;;;;;;4994944;28;20222;-67
2022/01/05 05:56:31;;;;;;;9.40;5.67;;;7.80;99.90;;;;;;4994927;28;20293;-67
2022/01/05 05:58:58;;;;;;;8.63;5.43;;;7.80;99.90;;;;;;4994935;28;20747;-68
2022/01/05 06:01:25;;;;;;;7.70;4.80;;;7.90;99.90;;;;;;4994956;28;20215;-67
2022/01/05 06:03:51;;;;;;;7.57;4.73;;;7.90;99.90;;;;;;4994479;28;20199;-66
2022/01/05 06:06:20;;;;;;;7.20;4.23;;;7.90;99.90;;;;;;4994952;28;20211;-67
2022/01/05 06:08:46;;;;;;;6.63;4.37;;;7.90;99.90;;;;;;4995011;28;20204;-67
2022/01/05 06:11:13;;;;;;;7.63;4.27;;;8.00;99.90;;;;;;4994992;28;20209;-65
2022/01/05 06:13:40;;;;;;;6.87;4.10;;;8.10;99.90;;;;;;4994971;28;20223;-69
2022/01/05 06:16:07;;;;;;;8.73;5.00;;;8.10;99.90;;;;;;4994777;28;20210;-66
2022/01/05 06:18:33;;;;;;;6.83;4.33;;;8.20;99.90;;;;;;4994751;28;20204;-67
2022/01/05 06:21:00;;;;;;;7.97;4.53;;;8.20;99.90;;;;;;4994965;28;20207;-69
2022/01/05 06:23:28;;;;;;;5.53;4.20;;;8.30;99.90;;;;;;4994625;28;20209;-68
2022/01/05 06:25:55;;;;;;;6.57;4.20;;;8.40;99.90;;;;;;4994340;28;20705;-70
2022/01/05 06:28:22;;;;;;;8.30;4.73;;;8.40;99.90;;;;;;4993955;28;20204;-70
2022/01/05 06:30:49;;;;;;;7.67;4.53;;;8.50;99.90;;;;;;4994280;28;20211;-67
2022/01/05 06:33:15;;;;;;;6.43;4.33;;;8.60;99.90;;;;;;4993828;28;20207;-69
2022/01/05 06:35:42;;;;;;;6.23;4.37;;;8.60;99.90;;;;;;4994283;28;20225;-69
2022/01/05 06:38:09;;;;;;;8.07;4.40;;;8.60;99.90;;;;;;4994054;28;20207;-70
2022/01/05 06:40:37;;;;;;;7.03;4.40;;;8.70;99.90;;;;;;4994596;28;20263;-71
2022/01/05 06:43:04;;;;;;;8.03;4.33;;;8.70;99.90;;;;;;4994222;28;20672;-69
2022/01/05 06:45:31;;;;;;;7.37;4.40;;;8.80;99.90;;;;;;4994520;28;20537;-70
2022/01/05 06:47:58;;;;;;;7.20;4.27;;;8.80;99.90;;;;;;4994298;28;20656;-68
2022/01/05 06:50:26;;;;;;;5.80;4.00;;;8.80;99.90;;;;;;4994294;28;20607;-69
2022/01/05 06:52:55;;;;;;;8.47;5.13;;;8.90;99.90;;;;;;4993650;28;20668;-69
2022/01/05 06:55:22;;;;;;;9.57;5.03;;;8.90;99.90;;;;;;4993070;28;20219;-72
2022/01/05 06:57:51;;;;;;;8.93;4.83;;;8.90;99.90;;;;;;4994061;28;20207;-71
2022/01/05 07:00:19;;;;;;;11.83;5.70;;;8.90;99.90;;;;;;4993130;28;20274;-71
2022/01/05 07:02:45;;;;;;;9.57;5.30;;;9.00;99.90;;;;;;4993588;28;20215;-70
2022/01/05 07:05:12;;;;;;;8.67;5.07;;;9.00;99.90;;;;;;4993751;28;20691;-71
2022/01/05 07:07:39;;;;;;;7.20;4.53;;;9.00;99.90;;;;;;4993809;28;20217;-70
2022/01/05 07:10:08;;;;;;;8.07;4.93;;;9.00;99.90;;;;;;4993556;28;20200;-72
2022/01/05 07:12:36;;;;;;;8.03;4.63;;;9.00;99.90;;;;;;4994043;28;20210;-72
2022/01/05 07:15:05;;;;;;;6.60;3.97;;;9.10;99.90;;;;;;4993654;28;20233;-72
2022/01/05 07:17:33;;;;;;;6.60;4.30;;;9.10;99.90;;;;;;4993346;28;20298;-71
2022/01/05 07:20:00;;;;;;;8.40;5.30;;;9.10;99.90;;;;;;4992960;28;20207;-70
2022/01/05 07:22:27;;;;;;;8.07;4.37;;;9.10;99.90;;;;;;4993394;28;20211;-70
2022/01/05 07:24:56;;;;;;;8.33;4.90;;;9.10;99.90;;;;;;4993089;28;20202;-71
2022/01/05 07:27:23;;;;;;;6.60;4.70;;;9.10;99.90;;;;;;4993445;28;20210;-71
2022/01/05 07:29:49;;;;;;;11.43;4.90;;;9.10;99.90;;;;;;4993151;28;20219;-70
2022/01/05 07:32:18;;;;;;;7.43;4.63;;;9.10;99.90;;;;;;4993047;28;20203;-71
2022/01/05 07:34:45;;;;;;;6.73;4.93;;;9.10;99.90;;;;;;4993424;28;20236;-70
2022/01/05 07:37:11;;;;;;;8.87;5.37;;;9.10;99.90;;;;;;4993215;28;20207;-69
2022/01/05 07:39:38;;;;;;;7.03;4.77;;;9.10;99.90;;;;;;4992945;28;20231;-68
2022/01/05 07:42:07;;;;;;;8.00;5.50;;;9.10;99.90;;;;;;4992886;28;20204;-68
2022/01/05 07:44:33;;;;;;;7.77;5.13;;;9.10;99.90;;;;;;4993319;28;20660;-68
2022/01/05 07:47:00;;;;;;;8.47;5.37;;;9.10;99.90;;;;;;4992971;28;20302;-71
2022/01/05 07:49:28;;;;;;;8.47;5.60;;;9.10;99.90;;;;;;4992949;28;20200;-72
2022/01/05 07:51:55;;;;;;;8.53;5.53;;;9.10;99.90;;;;;;4992271;28;20208;-70
2022/01/05 07:54:22;;;;;;;8.67;5.73;;;9.10;99.90;;;;;;4992120;28;20234;-70
2022/01/05 07:56:49;;;;;;;8.00;5.03;;;9.10;99.90;;;;;;4992555;28;20207;-70
2022/01/05 07:59:16;;;;;;;11.60;6.70;;;9.10;99.90;;;;;;4993041;28;20227;-72
2022/01/05 08:01:42;;;;;;;10.20;6.37;;;9.20;99.90;;;;;;4992762;28;20235;-71
2022/01/05 08:04:09;;;;;;;11.30;6.00;;;9.20;99.90;;;;;;4991992;28;20197;-71
2022/01/05 08:06:37;;;;;;;9.53;5.80;;;9.20;99.90;;;;;;4993051;28;20210;-69
2022/01/05 08:09:04;;;;;;;10.53;6.10;;;9.20;99.90;;;;;;4992554;28;20215;-70
2022/01/05 08:11:31;;;;;;;10.07;6.17;;;9.30;99.90;;;;;;4991826;28;20207;-72
2022/01/05 08:13:58;;;;;;;9.23;5.97;;;9.30;99.90;;;;;;4991324;28;20227;-69
2022/01/05 08:16:25;;;;;;;8.73;5.87;;;9.30;99.90;;;;;;4992254;28;20225;-67
2022/01/05 08:18:51;;;;;;;8.40;5.70;;;9.30;99.90;;;;;;4992445;28;20218;-69
2022/01/05 08:21:19;;;;;;;8.43;6.20;;;9.40;99.90;;;;;;4991993;28;20195;-70
2022/01/05 08:23:47;;;;;;;8.20;5.50;;;9.40;99.90;;;;;;4992327;28;20652;-71
2022/01/05 08:26:14;;;;;;;10.43;6.20;;;9.40;99.90;;;;;;4992164;28;20203;-72
2022/01/05 08:28:41;;;;;;;10.60;6.70;;;9.50;99.90;;;;;;4991741;28;20211;-70
2022/01/05 08:31:08;;;;;;;13.07;7.93;;;9.50;99.90;;;;;;4992602;28;20203;-72
2022/01/05 08:33:35;;;;;;;12.13;7.67;;;9.60;99.90;;;;;;4993129;28;20249;-69
2022/01/05 08:36:02;;;;;;;9.07;6.43;;;9.60;99.90;;;;;;4991776;28;20482;-71
2022/01/05 08:38:29;;;;;;;9.97;6.20;;;9.70;99.90;;;;;;4992837;28;20203;-70
2022/01/05 08:40:57;;;;;;;10.37;6.33;;;9.70;99.90;;;;;;4992351;28;20218;-71
2022/01/05 08:43:24;;;;;;;10.17;6.27;;;9.80;99.90;;;;;;4992626;28;20226;-70
2022/01/05 08:45:51;;;;;;;8.10;6.00;;;9.80;99.90;;;;;;4992219;28;20198;-69
2022/01/05 08:48:18;;;;;;;8.90;5.83;;;9.90;99.90;;;;;;4992875;28;20438;-70
2022/01/05 08:50:45;;;;;;;8.07;5.73;;;10.00;99.90;;;;;;4992252;28;20211;-69
2022/01/05 08:53:12;;;;;;;8.17;5.60;;;10.00;99.90;;;;;;4992616;28;20234;-68
2022/01/05 08:55:40;;;;;;;8.50;5.43;;;10.10;99.90;;;;;;4992174;28;20672;-71
2022/01/05 08:58:10;;;;;;;9.13;6.03;;;10.10;99.90;;;;;;4992119;28;20215;-72
2022/01/05 09:00:37;;;;;;;9.50;5.93;;;10.20;99.90;;;;;;4991771;28;20230;-71
2022/01/05 09:03:05;;;;;;;8.57;5.63;;;10.30;99.90;;;;;;4992313;28;20305;-67
2022/01/05 09:05:32;;;;;;;7.60;5.53;;;10.40;99.90;;;;;;4992608;28;20672;-68
2022/01/05 09:07:59;;;;;;;9.00;5.90;;;10.50;99.90;;;;;;4992630;28;20586;-71
2022/01/05 09:10:26;;;;;;;7.23;5.07;;;10.50;99.90;;;;;;4991418;28;20202;-70
2022/01/05 09:12:56;;;;;;;8.37;5.63;;;10.60;99.90;;;;;;4991732;28;20210;-70
2022/01/05 09:15:24;;;;;;;7.50;5.70;;;10.70;99.90;;;;;;4992318;28;20226;-70
2022/01/05 09:17:51;;;;;;;7.03;5.07;;;10.70;99.90;;;;;;4991859;28;20219;-71
2022/01/05 09:20:18;;;;;;;10.57;5.53;;;10.80;99.90;;;;;;4992284;28;20208;-71
2022/01/05 09:22:45;;;;;;;7.87;5.67;;;10.80;99.90;;;;;;4992065;28;20214;-69
2022/01/05 09:25:14;;;;;;;7.27;4.90;;;10.70;99.90;;;;;;4994874;28;20213;-70
2022/01/05 09:27:41;;;;;;;7.93;5.20;;;10.70;99.90;;;;;;4995826;28;20221;-69
2022/01/05 09:30:10;;;;;;;8.03;5.73;;;10.70;99.90;;;;;;4996122;28;20561;-71
2022/01/05 09:32:41;;;;;;;7.57;5.50;;;10.70;99.90;;;;;;4995152;28;20302;-70
2022/01/05 09:35:12;;;;;;;7.90;5.60;;;10.60;99.90;;;;;;4995865;28;20577;-71
2022/01/05 09:37:50;;;;;;;8.80;5.47;;;10.60;99.90;;;;;;4995429;28;20199;-73
2022/01/05 09:43:03;;;;;;;10.13;5.57;;;10.60;99.90;;;;;;4995415;28;20191;-68
2022/01/05 09:45:32;;;;;;;10.00;5.80;;;10.50;99.90;;;;;;4995499;28;20207;-69
2022/01/05 09:48:37;;;;;;;7.33;5.33;;;10.50;99.90;;;;;;4995314;28;20211;-69
2022/01/05 09:51:09;;;;;;;8.50;5.87;;;10.50;99.90;;;;;;4975145;28;20208;-69
2022/01/05 09:53:37;;;;;;;8.13;5.27;;;10.40;99.90;;;;;;4976334;28;20188;-69
2022/01/05 09:56:05;;;;;;;11.53;6.30;;;10.40;99.90;;;;;;4976354;28;20283;-70
2022/01/05 09:58:35;;;;;;;10.87;5.83;;;10.40;99.90;;;;;;4976473;28;20547;-70
2022/01/05 10:01:02;;;;;;;8.07;5.43;;;10.40;99.90;;;;;;4975808;28;20203;-69
2022/01/05 10:03:31;;;;;;;8.27;5.87;;;10.40;99.90;;;;;;4992645;28;20203;-69
2022/01/05 10:06:00;;;;;;;9.00;5.87;;;10.40;99.90;;;;;;4994810;28;20207;-70
2022/01/05 10:08:27;;;;;;;7.77;5.93;;;10.40;99.90;;;;;;4994792;28;20563;-68
2022/01/05 10:10:54;;;;;;;9.37;5.40;;;10.40;99.90;;;;;;4994782;28;20230;-69
2022/01/05 10:13:21;;;;;;;8.47;5.10;;;10.40;99.90;;;;;;4994608;28;20214;-68
2022/01/05 10:15:48;;;;;;;7.90;4.73;;;10.40;99.90;;;;;;4994520;28;20223;-71
2022/01/05 10:18:17;;;;;;;8.10;5.17;;;10.40;99.90;;;;;;4994902;28;20207;-68
2022/01/05 10:21:00;;;;;;;8.63;4.53;;;10.40;99.90;;;;;;4994528;28;20203;-69
2022/01/05 10:23:39;;;;;;;8.37;4.97;;;10.40;99.90;;;;;;4994550;28;20201;-70
2022/01/05 10:26:26;;;;;;;9.00;5.70;;;10.30;99.90;;;;;;4996995;28;20199;-68
2022/01/05 10:28:54;;;;;;;9.00;5.40;;;10.30;99.90;;;;;;4990510;28;20203;-68
2022/01/05 10:31:23;;;;;;;8.40;5.67;;;10.30;99.90;;;;;;4994371;28;20222;-69
2022/01/05 10:33:51;;;;;;;8.60;5.53;;;10.20;99.90;;;;;;4994360;28;20250;-70
2022/01/05 10:36:19;;;;;;;7.97;5.13;;;10.20;99.90;;;;;;4994139;28;20258;-70
2022/01/05 10:38:57;;;;;;;9.37;5.90;;;10.20;99.90;;;;;;4994377;28;20218;-70
2022/01/05 10:41:28;;;;;;;8.70;6.00;;;10.20;99.90;;;;;;4994741;28;20547;-70
2022/01/05 10:44:08;;;;;;;8.80;5.70;;;10.20;99.90;;;;;;4994364;28;20223;-70
2022/01/05 10:46:36;;;;;;;9.70;6.10;;;10.20;99.90;;;;;;4993377;28;20214;-70
2022/01/05 10:49:04;;;;;;;9.30;5.80;;;10.20;99.90;;;;;;4994300;28;20203;-70
2022/01/05 10:51:33;;;;;;;9.80;6.00;;;10.10;99.90;;;;;;4993993;28;20215;-71
2022/01/05 10:54:14;;;;;;;10.13;5.77;;;10.10;99.90;;;;;;4994456;28;20673;-69
2022/01/05 10:56:41;;;;;;;9.97;5.70;;;10.10;99.90;;;;;;4994101;28;20242;-71
2022/01/05 10:59:08;;;;;;;9.40;6.00;;;10.10;99.90;;;;;;4995687;28;20239;-69
2022/01/05 11:01:35;;;;;;;8.83;5.97;;;10.10;99.90;;;;;;4994766;28;20200;-68
2022/01/05 11:04:16;;;;;;;8.73;5.90;;;10.20;99.90;;;;;;4994933;28;20214;-70
2022/01/05 11:06:59;;;;;;;8.87;5.87;;;10.20;99.90;;;;;;4994225;28;20649;-69
2022/01/05 11:09:26;;;;;;;7.53;5.50;;;10.20;99.90;;;;;;4993915;28;20242;-69
2022/01/05 11:11:53;;;;;;;7.27;5.20;;;10.30;99.90;;;;;;4994093;28;20541;-69
2022/01/05 11:14:27;;;;;;;9.43;5.83;;;10.30;99.90;;;;;;4994374;28;20207;-67
2022/01/05 11:16:54;;;;;;;9.53;5.63;;;10.40;99.90;;;;;;4994163;28;20215;-68
2022/01/05 11:19:23;;;;;;;8.17;5.63;;;10.40;99.90;;;;;;4993953;28;20672;-71
2022/01/05 11:22:14;;;;;;;12.03;6.70;;;10.50;99.90;;;;;;4993690;28;20204;-68
2022/01/05 11:24:43;;;;;;;8.83;5.77;;;10.50;99.90;;;;;;4992535;28;20206;-69
2022/01/05 11:27:12;;;;;;;8.30;5.23;;;10.60;99.90;;;;;;4993730;28;20205;-70
2022/01/05 11:29:39;;;;;;;6.87;5.33;;;10.60;99.90;;;;;;4992764;28;20562;-68
2022/01/05 11:32:08;;;;;;;7.07;5.17;;;10.50;99.90;;;;;;4993619;28;20597;-69
2022/01/05 11:34:35;;;;;;;10.47;6.00;;;10.40;99.90;;;;;;4993375;28;20210;-68
2022/01/05 11:37:02;;;;;;;12.63;8.03;;;10.40;99.90;;;;;;4992985;28;20234;-69
2022/01/05 11:39:34;;;;;;;9.13;6.20;;;10.40;99.90;;;;;;4992516;28;20207;-70
2022/01/05 11:42:07;;;;;;;10.43;5.87;;;10.40;99.90;;;;;;4993346;28;20207;-71
2022/01/05 11:44:45;;;;;;;8.90;5.10;;;10.40;99.90;;;;;;4992457;28;20215;-69
2022/01/05 11:47:19;;;;;;;8.20;5.30;;;10.40;99.90;;;;;;4992912;28;20199;-69
2022/01/05 11:49:46;;;;;;;7.93;5.20;;;10.40;99.90;;;;;;4992689;28;20202;-69
2022/01/05 11:52:13;;;;;;;6.53;4.63;;;10.40;99.90;;;;;;4992018;28;20226;-68
2022/01/05 11:54:41;;;;;;;7.00;4.90;;;10.40;99.90;;;;;;4992318;28;20210;-68
2022/01/05 11:57:10;;;;;;;6.53;4.57;;;10.30;99.90;;;;;;4992436;28;20227;-69
2022/01/05 11:59:38;;;;;;;7.80;4.80;;;10.20;99.90;;;;;;4992750;28;20239;-68
2022/01/05 12:02:08;;;;;;;6.17;4.63;;;10.20;99.90;;;;;;4992795;28;20204;-68
2022/01/05 12:05:01;;;;;;;6.13;4.83;;;10.20;99.90;;;;;;4991691;28;20207;-70
2022/01/05 12:07:39;;;;;;;5.67;4.30;;;10.20;99.90;;;;;;4992458;28;20192;-70
2022/01/05 12:10:21;;;;;;;7.63;4.47;;;10.20;99.90;;;;;;4983404;28;20211;-71
2022/01/05 12:12:59;;;;;;;7.40;4.20;;;10.10;99.90;;;;;;4992941;28;20474;-69
2022/01/05 12:15:51;;;;;;;8.00;5.00;;;10.10;99.90;;;;;;4992689;28;20231;-69
2022/01/05 12:18:26;;;;;;;5.43;3.90;;;10.10;99.90;;;;;;4991910;28;20187;-69
2022/01/05 12:20:53;;;;;;;6.97;4.40;;;10.00;99.90;;;;;;4992741;28;20579;-72
2022/01/05 12:23:24;;;;;;;7.50;4.87;;;10.00;99.90;;;;;;4992519;28;20203;-69
2022/01/05 12:26:22;;;;;;;6.87;4.60;;;10.00;99.90;;;;;;4991912;28;20192;-69
2022/01/05 12:28:55;;;;;;;6.37;4.00;;;10.00;99.90;;;;;;4931669;29;20216;-70
2022/01/05 12:31:53;;;;;;;7.27;4.53;;;10.00;99.90;;;;;;4931667;29;20276;-69
2022/01/05 12:34:52;;;;;;;6.77;4.43;;;10.00;99.90;;;;;;4931578;29;20204;-71
2022/01/05 12:37:38;;;;;;;7.63;4.47;;;10.00;99.90;;;;;;4922467;29;20683;-70
2022/01/05 12:40:26;;;;;;;7.00;4.80;;;10.00;99.90;;;;;;4931761;29;20208;-71
2022/01/05 12:43:27;;;;;;;5.87;4.30;;;10.00;99.90;;;;;;4931871;29;20209;-71
2022/01/05 12:45:56;;;;;;;8.03;4.77;;;9.90;99.90;;;;;;4930328;29;20193;-72
2022/01/05 12:48:58;;;;;;;6.87;4.20;;;9.90;99.90;;;;;;4931010;29;20209;-71
2022/01/05 12:51:46;;;;;;;7.57;4.87;;;9.80;99.90;;;;;;4920531;29;20203;-71
2022/01/05 12:54:18;;;;;;;6.37;4.50;;;9.80;99.90;;;;;;4925707;29;20280;-72
2022/01/05 12:56:48;;;;;;;8.73;5.20;;;9.80;99.90;;;;;;4931157;29;20277;-69
2022/01/05 12:59:21;;;;;;;6.67;4.30;;;9.80;99.90;;;;;;4932645;29;20271;-70